Hauptseite
METAR-TAF:

METAR-TAF

Flughäfen :

Winchester Regional Airport

Winchester, Virginia, Vereinigte Staaten

Breite: 39-09N, Länge: 078-09W, Höhe: 222 m

Beobachtung

Neuester Wetterbericht von vor 11 Minuten, um 01:35 UTC
Wind 5 kt aus Ost/Südost
Temperatur 16°C
Luftfeuchtigkeit 88%
Luftdruck 1022 hPa
Sichtweite: 16.1 km
Geschlossene Wolkendecke in der Höhe von 1600 ft

METAR: KOKV 250135Z AUTO 12005KT 10SM OVC016 16/14 A3018 RMK AO2

Zeit: 21:46 (01:46 UTC)


TAF: fehlend

Wetterbeobachtungen und Prognosen von mehr als 4000 Flughäfen (METAR und TAF Bericht).

Die verfügbaren Stationen werden durch gelbe und rote Markierungen auf der Karte dargestellt.

Führen Sie die Maus auf sie, um den Namen der Station zu sehen.

Darauf klicken, um die Beobachtung von Wetterbeobachtungen und Prognosen zu sehen.

Um die Karte zu ändern : klicken Sie auf den grünen Tasten mit einem schwarzen Kreuz Zum Vergrößern, auf den grünen Button mit einem Gedankenstrich zu verkleinern, oder auf die grünen Pfeile für benachbarte Karten.


METAR-TAF: